sensor_id;sensor_type;location;lat;lon;timestamp;temperature;humidity
71297;SHT31;59082;50.658;4.608;2023-07-28T04:57:43;21.94;95.83
71297;SHT31;59082;50.658;4.608;2023-07-28T05:00:09;21.90;96.17
71297;SHT31;59082;50.658;4.608;2023-07-28T05:02:34;22.31;95.81
71297;SHT31;59082;50.658;4.608;2023-07-28T05:05:00;22.60;96.16
71297;SHT31;59082;50.658;4.608;2023-07-28T05:07:25;22.57;96.19
71297;SHT31;59082;50.658;4.608;2023-07-28T05:09:51;22.04;95.52
71297;SHT31;59082;50.658;4.608;2023-07-28T05:12:17;22.35;96.29
71297;SHT31;59082;50.658;4.608;2023-07-28T05:14:42;22.66;96.28
71297;SHT31;59082;50.658;4.608;2023-07-28T05:17:08;22.76;96.19
71297;SHT31;59082;50.658;4.608;2023-07-28T05:19:34;22.86;95.76
71297;SHT31;59082;50.658;4.608;2023-07-28T05:22:00;22.77;95.68
71297;SHT31;59082;50.658;4.608;2023-07-28T05:24:25;22.77;96.18
71297;SHT31;59082;50.658;4.608;2023-07-28T05:26:51;22.34;96.16
71297;SHT31;59082;50.658;4.608;2023-07-28T05:29:16;22.18;96.09
71297;SHT31;59082;50.658;4.608;2023-07-28T05:31:42;22.26;96.33
71297;SHT31;59082;50.658;4.608;2023-07-28T05:34:07;22.22;95.87
71297;SHT31;59082;50.658;4.608;2023-07-28T05:36:33;22.99;96.06
71297;SHT31;59082;50.658;4.608;2023-07-28T05:38:58;22.56;96.14
71297;SHT31;59082;50.658;4.608;2023-07-28T05:41:24;22.35;95.43
71297;SHT31;59082;50.658;4.608;2023-07-28T05:43:50;22.32;95.70
71297;SHT31;59082;50.658;4.608;2023-07-28T05:46:16;22.25;95.73
71297;SHT31;59082;50.658;4.608;2023-07-28T05:48:41;22.90;96.35
71297;SHT31;59082;50.658;4.608;2023-07-28T05:51:07;22.74;96.33
71297;SHT31;59082;50.658;4.608;2023-07-28T05:53:32;22.84;96.31
71297;SHT31;59082;50.658;4.608;2023-07-28T05:55:58;23.08;96.31
71297;SHT31;59082;50.658;4.608;2023-07-28T05:58:23;22.63;95.42
71297;SHT31;59082;50.658;4.608;2023-07-28T06:00:49;23.06;96.25
71297;SHT31;59082;50.658;4.608;2023-07-28T06:03:15;22.63;96.00
71297;SHT31;59082;50.658;4.608;2023-07-28T06:05:41;22.42;96.37
71297;SHT31;59082;50.658;4.608;2023-07-28T06:08:07;22.22;96.48
71297;SHT31;59082;50.658;4.608;2023-07-28T06:10:33;22.43;96.21
71297;SHT31;59082;50.658;4.608;2023-07-28T06:12:59;22.39;96.17
71297;SHT31;59082;50.658;4.608;2023-07-28T06:15:25;22.51;96.65
71297;SHT31;59082;50.658;4.608;2023-07-28T06:17:50;21.90;96.26
71297;SHT31;59082;50.658;4.608;2023-07-28T06:20:16;22.53;95.95
71297;SHT31;59082;50.658;4.608;2023-07-28T06:22:41;22.46;96.07
71297;SHT31;59082;50.658;4.608;2023-07-28T06:25:07;22.35;96.02
71297;SHT31;59082;50.658;4.608;2023-07-28T06:27:33;22.22;96.25
71297;SHT31;59082;50.658;4.608;2023-07-28T06:29:58;22.56;96.25
71297;SHT31;59082;50.658;4.608;2023-07-28T06:32:24;22.76;96.69
71297;SHT31;59082;50.658;4.608;2023-07-28T06:34:50;22.63;96.40
71297;SHT31;59082;50.658;4.608;2023-07-28T06:37:15;23.11;96.00
71297;SHT31;59082;50.658;4.608;2023-07-28T06:39:41;22.55;96.01
71297;SHT31;59082;50.658;4.608;2023-07-28T06:42:07;22.73;96.30
71297;SHT31;59082;50.658;4.608;2023-07-28T06:44:33;22.87;96.33
71297;SHT31;59082;50.658;4.608;2023-07-28T06:46:58;23.10;96.25
71297;SHT31;59082;50.658;4.608;2023-07-28T06:49:24;22.77;96.31
71297;SHT31;59082;50.658;4.608;2023-07-28T06:51:49;23.68;96.40
71297;SHT31;59082;50.658;4.608;2023-07-28T06:54:15;23.75;96.08
71297;SHT31;59082;50.658;4.608;2023-07-28T06:56:40;23.73;94.85
71297;SHT31;59082;50.658;4.608;2023-07-28T06:59:07;23.49;96.41
71297;SHT31;59082;50.658;4.608;2023-07-28T07:01:33;23.73;96.18
71297;SHT31;59082;50.658;4.608;2023-07-28T07:03:59;23.65;95.05
71297;SHT31;59082;50.658;4.608;2023-07-28T07:06:24;24.20;95.60
71297;SHT31;59082;50.658;4.608;2023-07-28T07:08:50;24.03;96.34
71297;SHT31;59082;50.658;4.608;2023-07-28T07:11:16;24.90;95.77
71297;SHT31;59082;50.658;4.608;2023-07-28T07:13:41;24.30;95.73
71297;SHT31;59082;50.658;4.608;2023-07-28T07:16:14;24.82;96.42
71297;SHT31;59082;50.658;4.608;2023-07-28T07:18:44;24.88;96.51
71297;SHT31;59082;50.658;4.608;2023-07-28T07:21:10;24.83;96.26
71297;SHT31;59082;50.658;4.608;2023-07-28T07:23:36;25.40;96.33
71297;SHT31;59082;50.658;4.608;2023-07-28T07:26:03;24.40;94.69
71297;SHT31;59082;50.658;4.608;2023-07-28T07:28:28;25.05;94.81
71297;SHT31;59082;50.658;4.608;2023-07-28T07:30:54;25.40;95.98
71297;SHT31;59082;50.658;4.608;2023-07-28T07:33:20;24.37;96.43
71297;SHT31;59082;50.658;4.608;2023-07-28T07:35:46;24.38;94.59
71297;SHT31;59082;50.658;4.608;2023-07-28T07:38:11;24.78;94.81
71297;SHT31;59082;50.658;4.608;2023-07-28T07:40:37;25.24;95.49
71297;SHT31;59082;50.658;4.608;2023-07-28T07:43:03;25.15;95.80
71297;SHT31;59082;50.658;4.608;2023-07-28T07:45:32;24.79;95.16
71297;SHT31;59082;50.658;4.608;2023-07-28T07:47:58;25.34;95.35
71297;SHT31;59082;50.658;4.608;2023-07-28T07:50:24;25.34;96.10
71297;SHT31;59082;50.658;4.608;2023-07-28T07:52:50;26.08;95.83
71297;SHT31;59082;50.658;4.608;2023-07-28T07:55:15;25.38;94.54
71297;SHT31;59082;50.658;4.608;2023-07-28T07:57:41;25.37;96.60
71297;SHT31;59082;50.658;4.608;2023-07-28T08:00:07;25.23;94.86
71297;SHT31;59082;50.658;4.608;2023-07-28T08:02:34;25.24;96.00
71297;SHT31;59082;50.658;4.608;2023-07-28T08:04:59;24.75;96.00
71297;SHT31;59082;50.658;4.608;2023-07-28T08:07:25;25.03;95.70
71297;SHT31;59082;50.658;4.608;2023-07-28T08:09:51;24.64;96.06
71297;SHT31;59082;50.658;4.608;2023-07-28T08:12:17;24.33;96.13
71297;SHT31;59082;50.658;4.608;2023-07-28T08:14:42;23.75;95.75
71297;SHT31;59082;50.658;4.608;2023-07-28T08:17:09;24.04;96.32
71297;SHT31;59082;50.658;4.608;2023-07-28T08:19:35;24.57;96.41
71297;SHT31;59082;50.658;4.608;2023-07-28T08:22:01;23.14;95.73
71297;SHT31;59082;50.658;4.608;2023-07-28T08:24:29;24.58;96.46
71297;SHT31;59082;50.658;4.608;2023-07-28T08:26:54;24.83;96.62
71297;SHT31;59082;50.658;4.608;2023-07-28T08:29:20;25.08;96.47
71297;SHT31;59082;50.658;4.608;2023-07-28T08:31:46;24.24;96.12
71297;SHT31;59082;50.658;4.608;2023-07-28T08:34:12;24.14;96.74
71297;SHT31;59082;50.658;4.608;2023-07-28T08:36:38;24.62;96.42
71297;SHT31;59082;50.658;4.608;2023-07-28T08:39:04;24.89;96.27
71297;SHT31;59082;50.658;4.608;2023-07-28T08:41:30;25.80;96.54
71297;SHT31;59082;50.658;4.608;2023-07-28T08:43:55;25.19;95.48
71297;SHT31;59082;50.658;4.608;2023-07-28T08:46:21;25.22;95.47
71297;SHT31;59082;50.658;4.608;2023-07-28T08:48:47;25.30;95.85
71297;SHT31;59082;50.658;4.608;2023-07-28T08:51:13;25.84;95.46
71297;SHT31;59082;50.658;4.608;2023-07-28T08:53:39;25.71;95.11
71297;SHT31;59082;50.658;4.608;2023-07-28T08:56:05;23.89;93.17
71297;SHT31;59082;50.658;4.608;2023-07-28T08:58:30;24.98;96.10
71297;SHT31;59082;50.658;4.608;2023-07-28T09:00:56;25.20;95.00
71297;SHT31;59082;50.658;4.608;2023-07-28T09:03:26;24.73;94.81
71297;SHT31;59082;50.658;4.608;2023-07-28T09:05:59;25.28;96.88
71297;SHT31;59082;50.658;4.608;2023-07-28T09:08:25;25.37;96.55
71297;SHT31;59082;50.658;4.608;2023-07-28T09:10:50;26.23;95.99
71297;SHT31;59082;50.658;4.608;2023-07-28T09:13:19;26.15;95.25
71297;SHT31;59082;50.658;4.608;2023-07-28T09:15:46;25.68;93.85
71297;SHT31;59082;50.658;4.608;2023-07-28T09:18:16;25.43;95.21
71297;SHT31;59082;50.658;4.608;2023-07-28T09:20:42;24.69;94.93
71297;SHT31;59082;50.658;4.608;2023-07-28T09:23:09;25.31;96.04
71297;SHT31;59082;50.658;4.608;2023-07-28T09:25:36;26.35;94.99
71297;SHT31;59082;50.658;4.608;2023-07-28T09:28:03;26.30;94.00
71297;SHT31;59082;50.658;4.608;2023-07-28T09:30:52;26.02;93.63
71297;SHT31;59082;50.658;4.608;2023-07-28T09:33:31;26.91;93.23
71297;SHT31;59082;50.658;4.608;2023-07-28T09:36:07;27.69;91.50
71297;SHT31;59082;50.658;4.608;2023-07-28T09:38:36;28.80;89.59
71297;SHT31;59082;50.658;4.608;2023-07-28T09:41:04;27.49;90.28
71297;SHT31;59082;50.658;4.608;2023-07-28T09:43:33;26.47;90.23
71297;SHT31;59082;50.658;4.608;2023-07-28T09:45:59;26.78;91.89
71297;SHT31;59082;50.658;4.608;2023-07-28T09:48:26;26.44;91.59
71297;SHT31;59082;50.658;4.608;2023-07-28T09:50:56;25.85;91.52
71297;SHT31;59082;50.658;4.608;2023-07-28T09:53:22;25.43;91.74
71297;SHT31;59082;50.658;4.608;2023-07-28T09:55:49;25.61;92.07
71297;SHT31;59082;50.658;4.608;2023-07-28T09:58:17;27.07;91.43
71297;SHT31;59082;50.658;4.608;2023-07-28T10:00:45;27.24;90.13
71297;SHT31;59082;50.658;4.608;2023-07-28T10:03:11;26.40;90.42
71297;SHT31;59082;50.658;4.608;2023-07-28T10:05:37;27.63;90.62
71297;SHT31;59082;50.658;4.608;2023-07-28T10:08:04;27.22;89.61
71297;SHT31;59082;50.658;4.608;2023-07-28T10:10:30;27.42;90.79
71297;SHT31;59082;50.658;4.608;2023-07-28T10:12:58;26.84;90.80
71297;SHT31;59082;50.658;4.608;2023-07-28T10:15:34;26.54;91.83
71297;SHT31;59082;50.658;4.608;2023-07-28T10:18:01;25.63;91.40
71297;SHT31;59082;50.658;4.608;2023-07-28T10:20:33;25.48;91.84
71297;SHT31;59082;50.658;4.608;2023-07-28T10:23:11;26.16;91.17
71297;SHT31;59082;50.658;4.608;2023-07-28T10:25:39;27.26;89.68
71297;SHT31;59082;50.658;4.608;2023-07-28T10:28:07;26.92;89.48
71297;SHT31;59082;50.658;4.608;2023-07-28T10:30:51;25.85;90.37
71297;SHT31;59082;50.658;4.608;2023-07-28T10:33:37;26.05;89.78
71297;SHT31;59082;50.658;4.608;2023-07-28T10:36:14;26.44;89.54
71297;SHT31;59082;50.658;4.608;2023-07-28T10:38:41;26.35;89.94
71297;SHT31;59082;50.658;4.608;2023-07-28T10:41:16;26.40;89.37
71297;SHT31;59082;50.658;4.608;2023-07-28T10:43:43;26.70;89.31
71297;SHT31;59082;50.658;4.608;2023-07-28T10:46:10;26.87;89.23
71297;SHT31;59082;50.658;4.608;2023-07-28T10:48:41;27.18;88.31
71297;SHT31;59082;50.658;4.608;2023-07-28T10:51:08;26.90;90.00
71297;SHT31;59082;50.658;4.608;2023-07-28T10:53:33;25.99;89.83
71297;SHT31;59082;50.658;4.608;2023-07-28T10:56:01;26.59;91.03
71297;SHT31;59082;50.658;4.608;2023-07-28T10:58:27;26.36;91.02
71297;SHT31;59082;50.658;4.608;2023-07-28T11:00:53;25.64;91.64
71297;SHT31;59082;50.658;4.608;2023-07-28T11:03:18;25.96;91.92
71297;SHT31;59082;50.658;4.608;2023-07-28T11:05:45;26.18;92.12
71297;SHT31;59082;50.658;4.608;2023-07-28T11:08:13;26.42;92.34
71297;SHT31;59082;50.658;4.608;2023-07-28T11:10:39;26.78;90.88
71297;SHT31;59082;50.658;4.608;2023-07-28T11:13:07;27.90;89.43
71297;SHT31;59082;50.658;4.608;2023-07-28T11:15:32;27.94;89.03
71297;SHT31;59082;50.658;4.608;2023-07-28T11:18:02;27.67;88.02
71297;SHT31;59082;50.658;4.608;2023-07-28T11:20:28;28.63;87.38
71297;SHT31;59082;50.658;4.608;2023-07-28T11:23:04;28.04;86.95
71297;SHT31;59082;50.658;4.608;2023-07-28T11:25:31;28.49;86.94
71297;SHT31;59082;50.658;4.608;2023-07-28T11:27:57;28.69;87.60
71297;SHT31;59082;50.658;4.608;2023-07-28T11:30:23;28.66;86.54
71297;SHT31;59082;50.658;4.608;2023-07-28T11:32:52;27.53;86.68
71297;SHT31;59082;50.658;4.608;2023-07-28T11:35:19;28.49;86.77
71297;SHT31;59082;50.658;4.608;2023-07-28T11:37:47;29.42;85.13
71297;SHT31;59082;50.658;4.608;2023-07-28T11:40:14;29.20;85.55
71297;SHT31;59082;50.658;4.608;2023-07-28T11:42:43;30.38;83.67
71297;SHT31;59082;50.658;4.608;2023-07-28T11:45:10;31.73;81.45
71297;SHT31;59082;50.658;4.608;2023-07-28T11:47:36;30.88;81.88
71297;SHT31;59082;50.658;4.608;2023-07-28T11:50:02;28.47;84.91
71297;SHT31;59082;50.658;4.608;2023-07-28T11:55:01;26.98;87.92
71297;SHT31;59082;50.658;4.608;2023-07-28T11:57:29;26.56;89.55
71297;SHT31;59082;50.658;4.608;2023-07-28T12:00:01;26.81;88.73
71297;SHT31;59082;50.658;4.608;2023-07-28T12:02:31;26.94;87.84
71297;SHT31;59082;50.658;4.608;2023-07-28T12:04:57;26.97;87.76
71297;SHT31;59082;50.658;4.608;2023-07-28T12:07:31;25.78;88.99
71297;SHT31;59082;50.658;4.608;2023-07-28T12:10:02;26.35;87.59
71297;SHT31;59082;50.658;4.608;2023-07-28T12:12:29;29.92;84.05
71297;SHT31;59082;50.658;4.608;2023-07-28T12:14:56;29.65;82.78
71297;SHT31;59082;50.658;4.608;2023-07-28T12:17:25;35.44;76.08
71297;SHT31;59082;50.658;4.608;2023-07-28T12:19:59;38.35;73.05
71297;SHT31;59082;50.658;4.608;2023-07-28T12:22:26;35.61;74.66
71297;SHT31;59082;50.658;4.608;2023-07-28T12:24:52;40.38;69.08
71297;SHT31;59082;50.658;4.608;2023-07-28T12:27:17;44.80;64.64
71297;SHT31;59082;50.658;4.608;2023-07-28T12:29:46;42.24;63.93
71297;SHT31;59082;50.658;4.608;2023-07-28T12:32:11;46.36;63.39
71297;SHT31;59082;50.658;4.608;2023-07-28T12:34:37;37.57;69.86
71297;SHT31;59082;50.658;4.608;2023-07-28T12:37:03;37.64;71.67
71297;SHT31;59082;50.658;4.608;2023-07-28T12:39:29;34.78;74.14
71297;SHT31;59082;50.658;4.608;2023-07-28T12:41:54;33.15;76.96
71297;SHT31;59082;50.658;4.608;2023-07-28T12:44:20;34.96;74.74
71297;SHT31;59082;50.658;4.608;2023-07-28T12:46:47;40.46;70.30
71297;SHT31;59082;50.658;4.608;2023-07-28T12:49:16;35.49;73.51
71297;SHT31;59082;50.658;4.608;2023-07-28T12:51:43;36.73;71.74
71297;SHT31;59082;50.658;4.608;2023-07-28T12:54:09;40.66;67.53
71297;SHT31;59082;50.658;4.608;2023-07-28T12:56:35;45.39;63.61
71297;SHT31;59082;50.658;4.608;2023-07-28T12:59:00;44.63;60.89
71297;SHT31;59082;50.658;4.608;2023-07-28T13:01:26;43.07;64.07
71297;SHT31;59082;50.658;4.608;2023-07-28T13:03:51;51.27;57.57
71297;SHT31;59082;50.658;4.608;2023-07-28T13:06:19;49.82;55.54
71297;SHT31;59082;50.658;4.608;2023-07-28T13:08:44;45.52;58.40
71297;SHT31;59082;50.658;4.608;2023-07-28T13:11:10;39.02;66.92
71297;SHT31;59082;50.658;4.608;2023-07-28T13:13:35;35.90;72.52
71297;SHT31;59082;50.658;4.608;2023-07-28T13:16:01;33.99;75.68
71297;SHT31;59082;50.658;4.608;2023-07-28T13:18:26;32.86;77.61
71297;SHT31;59082;50.658;4.608;2023-07-28T13:20:52;31.87;77.54
71297;SHT31;59082;50.658;4.608;2023-07-28T13:23:17;37.04;74.35
71297;SHT31;59082;50.658;4.608;2023-07-28T13:25:43;36.32;72.07
71297;SHT31;59082;50.658;4.608;2023-07-28T13:28:08;32.43;76.70
71297;SHT31;59082;50.658;4.608;2023-07-28T13:30:34;34.68;73.38
71297;SHT31;59082;50.658;4.608;2023-07-28T13:32:59;41.66;64.35
71297;SHT31;59082;50.658;4.608;2023-07-28T13:35:27;38.74;65.45
71297;SHT31;59082;50.658;4.608;2023-07-28T13:37:52;35.00;69.74
71297;SHT31;59082;50.658;4.608;2023-07-28T13:40:18;42.72;61.84
71297;SHT31;59082;50.658;4.608;2023-07-28T13:42:43;44.96;58.27
71297;SHT31;59082;50.658;4.608;2023-07-28T13:45:09;48.52;55.49
71297;SHT31;59082;50.658;4.608;2023-07-28T13:47:35;49.64;54.43
71297;SHT31;59082;50.658;4.608;2023-07-28T13:50:00;51.48;53.61
71297;SHT31;59082;50.658;4.608;2023-07-28T13:52:26;51.56;54.07
71297;SHT31;59082;50.658;4.608;2023-07-28T13:54:51;52.09;51.96
71297;SHT31;59082;50.658;4.608;2023-07-28T13:57:17;51.90;52.25
71297;SHT31;59082;50.658;4.608;2023-07-28T13:59:43;48.65;54.72
71297;SHT31;59082;50.658;4.608;2023-07-28T14:02:08;51.00;50.66
71297;SHT31;59082;50.658;4.608;2023-07-28T14:04:34;49.60;53.40
71297;SHT31;59082;50.658;4.608;2023-07-28T14:06:59;49.27;54.03
71297;SHT31;59082;50.658;4.608;2023-07-28T14:09:25;49.96;52.34
71297;SHT31;59082;50.658;4.608;2023-07-28T14:11:50;49.98;52.85
71297;SHT31;59082;50.658;4.608;2023-07-28T14:14:17;47.06;56.85
71297;SHT31;59082;50.658;4.608;2023-07-28T14:16:43;48.11;56.63
71297;SHT31;59082;50.658;4.608;2023-07-28T14:19:08;49.27;53.66
71297;SHT31;59082;50.658;4.608;2023-07-28T14:21:34;49.10;54.55
71297;SHT31;59082;50.658;4.608;2023-07-28T14:24:00;46.46;57.67
71297;SHT31;59082;50.658;4.608;2023-07-28T14:26:25;40.29;63.72
71297;SHT31;59082;50.658;4.608;2023-07-28T14:28:51;39.18;61.97
71297;SHT31;59082;50.658;4.608;2023-07-28T14:31:17;36.72;65.80
71297;SHT31;59082;50.658;4.608;2023-07-28T14:33:42;45.08;57.42
71297;SHT31;59082;50.658;4.608;2023-07-28T14:36:08;48.51;54.27
71297;SHT31;59082;50.658;4.608;2023-07-28T14:38:34;48.00;54.30
71297;SHT31;59082;50.658;4.608;2023-07-28T14:41:00;48.62;53.29
71297;SHT31;59082;50.658;4.608;2023-07-28T14:43:26;41.00;59.13
71297;SHT31;59082;50.658;4.608;2023-07-28T14:45:52;44.66;58.29
71297;SHT31;59082;50.658;4.608;2023-07-28T14:48:18;43.76;58.46
71297;SHT31;59082;50.658;4.608;2023-07-28T14:50:43;46.61;54.92
71297;SHT31;59082;50.658;4.608;2023-07-28T14:53:37;47.09;54.82
71297;SHT31;59082;50.658;4.608;2023-07-28T14:56:04;47.35;54.43
71297;SHT31;59082;50.658;4.608;2023-07-28T14:58:30;41.39;59.48
71297;SHT31;59082;50.658;4.608;2023-07-28T15:00:56;36.79;66.68
71297;SHT31;59082;50.658;4.608;2023-07-28T15:03:22;34.95;68.79
71297;SHT31;59082;50.658;4.608;2023-07-28T15:05:48;39.85;61.58
71297;SHT31;59082;50.658;4.608;2023-07-28T15:08:14;41.66;59.62
71297;SHT31;59082;50.658;4.608;2023-07-28T15:10:40;38.31;63.55
71297;SHT31;59082;50.658;4.608;2023-07-28T15:13:05;42.65;59.40
71297;SHT31;59082;50.658;4.608;2023-07-28T15:15:31;40.82;60.07
71297;SHT31;59082;50.658;4.608;2023-07-28T15:17:56;42.30;59.18
71297;SHT31;59082;50.658;4.608;2023-07-28T15:20:21;41.51;59.25
71297;SHT31;59082;50.658;4.608;2023-07-28T15:22:48;35.27;66.13
71297;SHT31;59082;50.658;4.608;2023-07-28T15:25:14;33.79;68.46
71297;SHT31;59082;50.658;4.608;2023-07-28T15:27:54;32.66;70.66
71297;SHT31;59082;50.658;4.608;2023-07-28T15:30:20;33.37;69.86
71297;SHT31;59082;50.658;4.608;2023-07-28T15:32:46;32.37;72.06
71297;SHT31;59082;50.658;4.608;2023-07-28T15:35:12;32.43;71.99
71297;SHT31;59082;50.658;4.608;2023-07-28T15:37:37;31.71;72.13
71297;SHT31;59082;50.658;4.608;2023-07-28T15:40:04;34.88;70.09
71297;SHT31;59082;50.658;4.608;2023-07-28T15:42:30;35.13;66.75
71297;SHT31;59082;50.658;4.608;2023-07-28T15:44:56;33.54;69.15
71297;SHT31;59082;50.658;4.608;2023-07-28T15:47:22;33.80;69.95
71297;SHT31;59082;50.658;4.608;2023-07-28T15:49:47;37.65;65.95
71297;SHT31;59082;50.658;4.608;2023-07-28T15:52:16;36.11;67.11
71297;SHT31;59082;50.658;4.608;2023-07-28T15:54:41;36.93;67.72
71297;SHT31;59082;50.658;4.608;2023-07-28T15:57:07;35.50;68.25
71297;SHT31;59082;50.658;4.608;2023-07-28T15:59:33;33.06;70.08
71297;SHT31;59082;50.658;4.608;2023-07-28T16:01:58;31.27;73.45
71297;SHT31;59082;50.658;4.608;2023-07-28T16:04:24;30.02;76.77
71297;SHT31;59082;50.658;4.608;2023-07-28T16:06:52;30.00;77.07
71297;SHT31;59082;50.658;4.608;2023-07-28T16:09:17;28.96;77.71
71297;SHT31;59082;50.658;4.608;2023-07-28T16:11:43;28.21;80.36
71297;SHT31;59082;50.658;4.608;2023-07-28T16:14:09;27.36;81.27
71297;SHT31;59082;50.658;4.608;2023-07-28T16:16:34;27.34;81.63
71297;SHT31;59082;50.658;4.608;2023-07-28T16:19:00;26.56;82.09
71297;SHT31;59082;50.658;4.608;2023-07-28T16:21:26;27.12;83.99
71297;SHT31;59082;50.658;4.608;2023-07-28T16:23:52;27.18;82.12
71297;SHT31;59082;50.658;4.608;2023-07-28T16:26:19;30.93;78.76
71297;SHT31;59082;50.658;4.608;2023-07-28T16:28:45;31.50;77.23
71297;SHT31;59082;50.658;4.608;2023-07-28T16:31:10;29.17;80.47
71297;SHT31;59082;50.658;4.608;2023-07-28T16:33:36;28.70;80.81
71297;SHT31;59082;50.658;4.608;2023-07-28T16:36:02;28.42;83.44
71297;SHT31;59082;50.658;4.608;2023-07-28T16:38:28;27.98;84.57
71297;SHT31;59082;50.658;4.608;2023-07-28T16:40:53;27.45;84.63
71297;SHT31;59082;50.658;4.608;2023-07-28T16:43:19;26.78;84.71
71297;SHT31;59082;50.658;4.608;2023-07-28T16:45:46;26.33;86.53
71297;SHT31;59082;50.658;4.608;2023-07-28T16:48:13;26.94;86.54
71297;SHT31;59082;50.658;4.608;2023-07-28T16:50:38;27.12;86.00
71297;SHT31;59082;50.658;4.608;2023-07-28T16:53:06;26.63;86.47
71297;SHT31;59082;50.658;4.608;2023-07-28T16:55:32;26.98;87.20
71297;SHT31;59082;50.658;4.608;2023-07-28T16:58:00;26.63;86.45
71297;SHT31;59082;50.658;4.608;2023-07-28T17:00:27;26.77;86.17
71297;SHT31;59082;50.658;4.608;2023-07-28T17:02:53;26.83;85.88
71297;SHT31;59082;50.658;4.608;2023-07-28T17:05:18;27.22;86.34
71297;SHT31;59082;50.658;4.608;2023-07-28T17:07:45;26.78;86.55
71297;SHT31;59082;50.658;4.608;2023-07-28T17:10:11;26.76;85.92
71297;SHT31;59082;50.658;4.608;2023-07-28T17:12:37;26.86;87.63
71297;SHT31;59082;50.658;4.608;2023-07-28T17:15:03;27.08;87.81
71297;SHT31;59082;50.658;4.608;2023-07-28T17:17:29;26.88;87.24
71297;SHT31;59082;50.658;4.608;2023-07-28T17:19:55;26.99;87.20
71297;SHT31;59082;50.658;4.608;2023-07-28T17:22:20;27.41;86.95
71297;SHT31;59082;50.658;4.608;2023-07-28T17:24:46;26.99;85.90
71297;SHT31;59082;50.658;4.608;2023-07-28T17:27:16;27.32;87.12
71297;SHT31;59082;50.658;4.608;2023-07-28T17:29:42;26.80;86.73
71297;SHT31;59082;50.658;4.608;2023-07-28T17:32:07;26.60;87.27
71297;SHT31;59082;50.658;4.608;2023-07-28T17:34:41;26.88;87.22
71297;SHT31;59082;50.658;4.608;2023-07-28T17:37:10;26.94;87.18
71297;SHT31;59082;50.658;4.608;2023-07-28T17:39:37;26.70;88.22
71297;SHT31;59082;50.658;4.608;2023-07-28T17:42:05;26.13;89.04
71297;SHT31;59082;50.658;4.608;2023-07-28T17:44:32;25.77;90.42
71297;SHT31;59082;50.658;4.608;2023-07-28T17:46:57;25.67;90.90
71297;SHT31;59082;50.658;4.608;2023-07-28T17:49:26;25.84;89.68
71297;SHT31;59082;50.658;4.608;2023-07-28T17:51:52;25.98;90.06
71297;SHT31;59082;50.658;4.608;2023-07-28T17:54:18;25.86;90.33
71297;SHT31;59082;50.658;4.608;2023-07-28T17:56:44;25.63;91.07
71297;SHT31;59082;50.658;4.608;2023-07-28T17:59:10;25.74;90.80
71297;SHT31;59082;50.658;4.608;2023-07-28T18:01:35;25.56;90.91
71297;SHT31;59082;50.658;4.608;2023-07-28T18:04:01;25.15;90.61
71297;SHT31;59082;50.658;4.608;2023-07-28T18:06:26;25.13;91.61
71297;SHT31;59082;50.658;4.608;2023-07-28T18:08:52;25.27;90.80
71297;SHT31;59082;50.658;4.608;2023-07-28T18:11:18;25.10;90.78
71297;SHT31;59082;50.658;4.608;2023-07-28T18:13:43;25.03;90.57
71297;SHT31;59082;50.658;4.608;2023-07-28T18:16:09;24.75;91.45
71297;SHT31;59082;50.658;4.608;2023-07-28T18:18:34;24.96;92.46
71297;SHT31;59082;50.658;4.608;2023-07-28T18:21:00;24.99;92.08
71297;SHT31;59082;50.658;4.608;2023-07-28T18:23:26;24.58;92.49
71297;SHT31;59082;50.658;4.608;2023-07-28T18:25:51;24.31;92.66
71297;SHT31;59082;50.658;4.608;2023-07-28T18:28:17;24.03;93.50
71297;SHT31;59082;50.658;4.608;2023-07-28T18:30:42;24.07;93.10
71297;SHT31;59082;50.658;4.608;2023-07-28T18:33:08;23.92;93.80
71297;SHT31;59082;50.658;4.608;2023-07-28T18:35:36;23.56;94.04
71297;SHT31;59082;50.658;4.608;2023-07-28T18:38:02;23.24;94.69
71297;SHT31;59082;50.658;4.608;2023-07-28T18:40:27;23.25;94.74
71297;SHT31;59082;50.658;4.608;2023-07-28T18:42:53;23.14;95.02
71297;SHT31;59082;50.658;4.608;2023-07-28T18:45:18;22.94;94.98
71297;SHT31;59082;50.658;4.608;2023-07-28T18:47:44;22.90;95.21
71297;SHT31;59082;50.658;4.608;2023-07-28T18:50:09;22.76;95.30
71297;SHT31;59082;50.658;4.608;2023-07-28T18:52:35;22.62;95.48
71297;SHT31;59082;50.658;4.608;2023-07-28T18:55:00;22.57;95.13
71297;SHT31;59082;50.658;4.608;2023-07-28T18:57:26;22.77;95.04
71297;SHT31;59082;50.658;4.608;2023-07-28T18:59:52;22.25;95.43
71297;SHT31;59082;50.658;4.608;2023-07-28T19:02:17;22.11;95.46
71297;SHT31;59082;50.658;4.608;2023-07-28T19:04:42;22.08;95.45
71297;SHT31;59082;50.658;4.608;2023-07-28T19:07:10;22.02;95.32
71297;SHT31;59082;50.658;4.608;2023-07-28T19:09:36;21.77;95.27
71297;SHT31;59082;50.658;4.608;2023-07-28T19:12:02;21.94;95.21
71297;SHT31;59082;50.658;4.608;2023-07-28T19:14:28;21.67;95.08
71297;SHT31;59082;50.658;4.608;2023-07-28T19:16:53;21.54;95.16
71297;SHT31;59082;50.658;4.608;2023-07-28T19:19:19;21.46;95.11
71297;SHT31;59082;50.658;4.608;2023-07-28T19:21:45;21.38;95.03
71297;SHT31;59082;50.658;4.608;2023-07-28T19:24:11;21.29;95.02
71297;SHT31;59082;50.658;4.608;2023-07-28T19:26:36;21.26;94.95
71297;SHT31;59082;50.658;4.608;2023-07-28T19:29:02;21.18;94.99
71297;SHT31;59082;50.658;4.608;2023-07-28T19:31:28;21.09;94.95
71297;SHT31;59082;50.658;4.608;2023-07-28T19:33:55;20.96;94.88
71297;SHT31;59082;50.658;4.608;2023-07-28T19:36:20;21.01;95.09
71297;SHT31;59082;50.658;4.608;2023-07-28T19:38:46;20.80;95.03
71297;SHT31;59082;50.658;4.608;2023-07-28T19:41:11;20.68;95.17
71297;SHT31;59082;50.658;4.608;2023-07-28T19:43:39;21.53;95.11
71297;SHT31;59082;50.658;4.608;2023-07-28T19:46:05;21.66;95.12
71297;SHT31;59082;50.658;4.608;2023-07-28T19:48:30;21.61;95.03
71297;SHT31;59082;50.658;4.608;2023-07-28T19:50:56;20.85;95.08
71297;SHT31;59082;50.658;4.608;2023-07-28T19:53:21;21.57;95.21
71297;SHT31;59082;50.658;4.608;2023-07-28T19:55:47;21.38;95.20
71297;SHT31;59082;50.658;4.608;2023-07-28T19:58:13;21.40;95.33
71297;SHT31;59082;50.658;4.608;2023-07-28T20:00:38;20.70;95.04
71297;SHT31;59082;50.658;4.608;2023-07-28T20:03:04;20.83;95.40
71297;SHT31;59082;50.658;4.608;2023-07-28T20:05:29;20.95;95.10
71297;SHT31;59082;50.658;4.608;2023-07-28T20:07:55;20.92;95.25
71297;SHT31;59082;50.658;4.608;2023-07-28T20:10:20;21.61;95.36
71297;SHT31;59082;50.658;4.608;2023-07-28T20:12:46;22.08;95.21
71297;SHT31;59082;50.658;4.608;2023-07-28T20:15:11;22.29;95.20
71297;SHT31;59082;50.658;4.608;2023-07-28T20:17:37;22.35;95.24
71297;SHT31;59082;50.658;4.608;2023-07-28T20:20:02;21.90;95.21
71297;SHT31;59082;50.658;4.608;2023-07-28T20:22:29;21.57;95.49
71297;SHT31;59082;50.658;4.608;2023-07-28T20:24:54;21.74;95.47